sensor_id;sensor_type;location;lat;lon;timestamp;P1;durP1;ratioP1;P2;durP2;ratioP2
68944;SDS011;55984;48.790;8.990;2022-09-01T00:00:44;189.83;;;48.03;;
68944;SDS011;55984;48.790;8.990;2022-09-01T00:03:13;193.97;;;49.27;;
68944;SDS011;55984;48.790;8.990;2022-09-01T00:05:40;191.93;;;49.00;;
68944;SDS011;55984;48.790;8.990;2022-09-01T00:08:06;196.40;;;49.10;;
68944;SDS011;55984;48.790;8.990;2022-09-01T00:10:31;200.33;;;50.20;;
68944;SDS011;55984;48.790;8.990;2022-09-01T00:12:56;182.50;;;48.10;;
68944;SDS011;55984;48.790;8.990;2022-09-01T00:15:23;198.13;;;47.37;;
68944;SDS011;55984;48.790;8.990;2022-09-01T00:17:48;177.97;;;47.43;;
68944;SDS011;55984;48.790;8.990;2022-09-01T00:20:13;186.13;;;47.80;;
68944;SDS011;55984;48.790;8.990;2022-09-01T00:22:39;179.73;;;46.90;;
68944;SDS011;55984;48.790;8.990;2022-09-01T00:25:04;175.93;;;45.20;;
68944;SDS011;55984;48.790;8.990;2022-09-01T00:27:30;176.83;;;46.83;;
68944;SDS011;55984;48.790;8.990;2022-09-01T00:29:56;206.00;;;46.90;;
68944;SDS011;55984;48.790;8.990;2022-09-01T00:32:22;175.40;;;46.63;;
68944;SDS011;55984;48.790;8.990;2022-09-01T00:34:47;154.40;;;44.60;;
68944;SDS011;55984;48.790;8.990;2022-09-01T00:37:13;182.03;;;45.50;;
68944;SDS011;55984;48.790;8.990;2022-09-01T00:39:38;198.10;;;46.20;;
68944;SDS011;55984;48.790;8.990;2022-09-01T00:42:03;206.80;;;48.53;;
68944;SDS011;55984;48.790;8.990;2022-09-01T00:44:29;188.13;;;46.60;;
68944;SDS011;55984;48.790;8.990;2022-09-01T00:46:55;190.03;;;48.93;;
68944;SDS011;55984;48.790;8.990;2022-09-01T00:49:25;217.97;;;49.77;;
68944;SDS011;55984;48.790;8.990;2022-09-01T00:52:03;214.40;;;49.50;;
68944;SDS011;55984;48.790;8.990;2022-09-01T00:54:34;201.70;;;47.00;;
68944;SDS011;55984;48.790;8.990;2022-09-01T00:57:01;197.10;;;47.83;;
68944;SDS011;55984;48.790;8.990;2022-09-01T00:59:28;201.00;;;50.17;;
68944;SDS011;55984;48.790;8.990;2022-09-01T01:01:54;198.53;;;47.00;;
68944;SDS011;55984;48.790;8.990;2022-09-01T01:04:22;207.80;;;47.97;;
68944;SDS011;55984;48.790;8.990;2022-09-01T01:06:50;192.37;;;48.30;;
68944;SDS011;55984;48.790;8.990;2022-09-01T01:09:26;213.10;;;49.77;;
68944;SDS011;55984;48.790;8.990;2022-09-01T01:11:53;201.33;;;46.20;;
68944;SDS011;55984;48.790;8.990;2022-09-01T01:14:18;185.83;;;43.23;;
68944;SDS011;55984;48.790;8.990;2022-09-01T01:16:45;174.13;;;43.07;;
68944;SDS011;55984;48.790;8.990;2022-09-01T01:19:57;167.83;;;42.20;;
68944;SDS011;55984;48.790;8.990;2022-09-01T01:22:40;166.03;;;42.53;;
68944;SDS011;55984;48.790;8.990;2022-09-01T01:25:37;177.37;;;42.00;;
68944;SDS011;55984;48.790;8.990;2022-09-01T01:28:16;173.70;;;43.00;;
68944;SDS011;55984;48.790;8.990;2022-09-01T01:30:44;168.07;;;41.40;;
68944;SDS011;55984;48.790;8.990;2022-09-01T01:33:16;175.77;;;43.70;;
68944;SDS011;55984;48.790;8.990;2022-09-01T01:35:43;187.07;;;42.43;;
68944;SDS011;55984;48.790;8.990;2022-09-01T01:38:11;165.67;;;43.07;;
68944;SDS011;55984;48.790;8.990;2022-09-01T01:40:39;187.67;;;43.33;;
68944;SDS011;55984;48.790;8.990;2022-09-01T01:43:06;179.37;;;45.67;;
68944;SDS011;55984;48.790;8.990;2022-09-01T01:45:31;180.60;;;44.27;;
68944;SDS011;55984;48.790;8.990;2022-09-01T01:47:57;197.27;;;44.50;;
68944;SDS011;55984;48.790;8.990;2022-09-01T01:50:26;189.40;;;47.00;;
68944;SDS011;55984;48.790;8.990;2022-09-01T01:52:58;187.37;;;46.27;;
68944;SDS011;55984;48.790;8.990;2022-09-01T01:55:26;176.20;;;44.27;;
68944;SDS011;55984;48.790;8.990;2022-09-01T01:57:52;171.90;;;41.90;;
68944;SDS011;55984;48.790;8.990;2022-09-01T02:00:20;199.73;;;46.83;;
68944;SDS011;55984;48.790;8.990;2022-09-01T02:02:48;187.67;;;45.40;;
68944;SDS011;55984;48.790;8.990;2022-09-01T02:05:19;192.37;;;47.63;;
68944;SDS011;55984;48.790;8.990;2022-09-01T02:07:52;169.83;;;46.90;;
68944;SDS011;55984;48.790;8.990;2022-09-01T02:10:23;201.57;;;47.37;;
68944;SDS011;55984;48.790;8.990;2022-09-01T02:12:54;181.73;;;45.33;;
68944;SDS011;55984;48.790;8.990;2022-09-01T02:15:22;196.43;;;45.87;;
68944;SDS011;55984;48.790;8.990;2022-09-01T02:17:47;187.33;;;47.60;;
68944;SDS011;55984;48.790;8.990;2022-09-01T02:20:13;219.80;;;47.70;;
68944;SDS011;55984;48.790;8.990;2022-09-01T02:22:40;189.17;;;46.03;;
68944;SDS011;55984;48.790;8.990;2022-09-01T02:25:05;173.70;;;42.40;;
68944;SDS011;55984;48.790;8.990;2022-09-01T02:27:32;174.70;;;44.70;;
68944;SDS011;55984;48.790;8.990;2022-09-01T02:30:00;197.30;;;47.20;;
68944;SDS011;55984;48.790;8.990;2022-09-01T02:32:26;187.60;;;46.03;;
68944;SDS011;55984;48.790;8.990;2022-09-01T02:34:51;168.67;;;43.30;;
68944;SDS011;55984;48.790;8.990;2022-09-01T02:37:25;192.97;;;45.53;;
68944;SDS011;55984;48.790;8.990;2022-09-01T02:39:51;199.20;;;47.60;;
68944;SDS011;55984;48.790;8.990;2022-09-01T02:42:18;203.77;;;45.40;;
68944;SDS011;55984;48.790;8.990;2022-09-01T02:44:53;210.83;;;44.77;;
68944;SDS011;55984;48.790;8.990;2022-09-01T02:47:19;198.80;;;45.07;;
68944;SDS011;55984;48.790;8.990;2022-09-01T02:49:48;180.43;;;41.60;;
68944;SDS011;55984;48.790;8.990;2022-09-01T02:52:15;171.87;;;42.20;;
68944;SDS011;55984;48.790;8.990;2022-09-01T02:54:42;155.40;;;40.17;;
68944;SDS011;55984;48.790;8.990;2022-09-01T02:57:10;175.10;;;42.53;;
68944;SDS011;55984;48.790;8.990;2022-09-01T02:59:36;172.43;;;40.33;;
68944;SDS011;55984;48.790;8.990;2022-09-01T03:02:02;195.90;;;44.97;;
68944;SDS011;55984;48.790;8.990;2022-09-01T03:04:27;183.83;;;44.23;;
68944;SDS011;55984;48.790;8.990;2022-09-01T03:06:58;186.90;;;45.13;;
68944;SDS011;55984;48.790;8.990;2022-09-01T03:09:25;184.17;;;44.53;;
68944;SDS011;55984;48.790;8.990;2022-09-01T03:11:51;180.93;;;42.00;;
68944;SDS011;55984;48.790;8.990;2022-09-01T03:14:18;187.10;;;41.50;;
68944;SDS011;55984;48.790;8.990;2022-09-01T03:16:45;191.57;;;44.40;;
68944;SDS011;55984;48.790;8.990;2022-09-01T03:19:10;211.13;;;45.17;;
68944;SDS011;55984;48.790;8.990;2022-09-01T03:21:37;207.47;;;46.53;;
68944;SDS011;55984;48.790;8.990;2022-09-01T03:24:05;228.57;;;48.40;;
68944;SDS011;55984;48.790;8.990;2022-09-01T03:26:32;230.30;;;46.50;;
68944;SDS011;55984;48.790;8.990;2022-09-01T03:28:58;191.93;;;45.27;;
68944;SDS011;55984;48.790;8.990;2022-09-01T03:31:24;175.67;;;43.27;;
68944;SDS011;55984;48.790;8.990;2022-09-01T03:33:51;190.97;;;44.77;;
68944;SDS011;55984;48.790;8.990;2022-09-01T03:36:18;203.40;;;44.10;;
68944;SDS011;55984;48.790;8.990;2022-09-01T03:38:44;198.03;;;43.87;;
68944;SDS011;55984;48.790;8.990;2022-09-01T03:41:13;189.80;;;45.63;;
68944;SDS011;55984;48.790;8.990;2022-09-01T03:43:41;215.70;;;44.17;;
68944;SDS011;55984;48.790;8.990;2022-09-01T03:46:07;209.53;;;45.20;;
68944;SDS011;55984;48.790;8.990;2022-09-01T03:48:35;191.43;;;43.60;;
68944;SDS011;55984;48.790;8.990;2022-09-01T03:51:00;170.23;;;42.83;;
68944;SDS011;55984;48.790;8.990;2022-09-01T03:53:32;199.37;;;42.10;;
68944;SDS011;55984;48.790;8.990;2022-09-01T03:56:01;188.33;;;44.83;;
68944;SDS011;55984;48.790;8.990;2022-09-01T03:58:28;216.80;;;46.70;;
68944;SDS011;55984;48.790;8.990;2022-09-01T04:00:55;201.13;;;46.10;;
68944;SDS011;55984;48.790;8.990;2022-09-01T04:03:23;209.10;;;45.33;;
68944;SDS011;55984;48.790;8.990;2022-09-01T04:05:51;195.67;;;43.17;;
68944;SDS011;55984;48.790;8.990;2022-09-01T04:08:18;192.43;;;44.07;;
68944;SDS011;55984;48.790;8.990;2022-09-01T04:10:49;200.03;;;43.07;;
68944;SDS011;55984;48.790;8.990;2022-09-01T04:13:25;191.27;;;44.83;;
68944;SDS011;55984;48.790;8.990;2022-09-01T04:15:54;199.83;;;47.60;;
68944;SDS011;55984;48.790;8.990;2022-09-01T04:18:21;232.43;;;47.03;;
68944;SDS011;55984;48.790;8.990;2022-09-01T04:20:57;221.53;;;47.10;;
68944;SDS011;55984;48.790;8.990;2022-09-01T04:23:24;239.33;;;47.60;;
68944;SDS011;55984;48.790;8.990;2022-09-01T04:25:56;227.77;;;47.33;;
68944;SDS011;55984;48.790;8.990;2022-09-01T04:28:25;207.03;;;46.73;;
68944;SDS011;55984;48.790;8.990;2022-09-01T04:30:58;227.77;;;47.87;;
68944;SDS011;55984;48.790;8.990;2022-09-01T04:33:29;242.27;;;50.37;;
68944;SDS011;55984;48.790;8.990;2022-09-01T04:36:03;229.13;;;48.00;;
68944;SDS011;55984;48.790;8.990;2022-09-01T04:38:30;219.73;;;48.67;;
68944;SDS011;55984;48.790;8.990;2022-09-01T04:40:55;250.70;;;51.33;;
68944;SDS011;55984;48.790;8.990;2022-09-01T04:43:24;257.17;;;50.80;;
68944;SDS011;55984;48.790;8.990;2022-09-01T04:45:50;258.00;;;52.40;;
68944;SDS011;55984;48.790;8.990;2022-09-01T04:48:18;252.83;;;47.93;;
68944;SDS011;55984;48.790;8.990;2022-09-01T04:50:46;214.37;;;46.67;;
68944;SDS011;55984;48.790;8.990;2022-09-01T04:53:13;226.33;;;45.23;;
68944;SDS011;55984;48.790;8.990;2022-09-01T04:55:40;246.73;;;47.90;;
68944;SDS011;55984;48.790;8.990;2022-09-01T04:58:09;239.37;;;47.40;;
68944;SDS011;55984;48.790;8.990;2022-09-01T05:00:41;274.73;;;50.40;;
68944;SDS011;55984;48.790;8.990;2022-09-01T05:03:09;279.67;;;52.93;;
68944;SDS011;55984;48.790;8.990;2022-09-01T05:05:41;279.27;;;56.37;;
68944;SDS011;55984;48.790;8.990;2022-09-01T05:08:13;300.87;;;59.10;;
68944;SDS011;55984;48.790;8.990;2022-09-01T05:10:44;338.17;;;67.80;;
68944;SDS011;55984;48.790;8.990;2022-09-01T05:13:12;326.93;;;65.77;;
68944;SDS011;55984;48.790;8.990;2022-09-01T05:15:42;366.27;;;71.93;;
68944;SDS011;55984;48.790;8.990;2022-09-01T05:18:12;363.33;;;70.20;;
68944;SDS011;55984;48.790;8.990;2022-09-01T05:20:39;368.30;;;74.93;;
68944;SDS011;55984;48.790;8.990;2022-09-01T05:23:10;357.77;;;68.33;;
68944;SDS011;55984;48.790;8.990;2022-09-01T05:25:40;353.07;;;71.50;;
68944;SDS011;55984;48.790;8.990;2022-09-01T05:28:08;327.00;;;66.70;;
68944;SDS011;55984;48.790;8.990;2022-09-01T05:30:36;301.60;;;60.80;;
68944;SDS011;55984;48.790;8.990;2022-09-01T05:33:04;318.07;;;63.70;;
68944;SDS011;55984;48.790;8.990;2022-09-01T05:35:35;323.83;;;64.47;;
68944;SDS011;55984;48.790;8.990;2022-09-01T05:38:01;311.53;;;60.03;;
68944;SDS011;55984;48.790;8.990;2022-09-01T05:40:27;341.17;;;68.13;;
68944;SDS011;55984;48.790;8.990;2022-09-01T05:42:52;342.67;;;65.67;;
68944;SDS011;55984;48.790;8.990;2022-09-01T05:45:19;298.63;;;62.70;;
68944;SDS011;55984;48.790;8.990;2022-09-01T05:47:47;369.20;;;69.30;;
68944;SDS011;55984;48.790;8.990;2022-09-01T05:50:12;339.03;;;71.20;;
68944;SDS011;55984;48.790;8.990;2022-09-01T05:52:40;368.30;;;70.20;;
68944;SDS011;55984;48.790;8.990;2022-09-01T05:55:11;308.23;;;66.87;;
68944;SDS011;55984;48.790;8.990;2022-09-01T05:57:39;319.13;;;63.77;;
68944;SDS011;55984;48.790;8.990;2022-09-01T06:00:07;296.97;;;62.57;;
68944;SDS011;55984;48.790;8.990;2022-09-01T06:02:38;340.90;;;68.50;;
68944;SDS011;55984;48.790;8.990;2022-09-01T06:05:06;316.90;;;66.73;;
68944;SDS011;55984;48.790;8.990;2022-09-01T06:07:33;285.43;;;63.47;;
68944;SDS011;55984;48.790;8.990;2022-09-01T06:10:03;256.43;;;62.47;;
68944;SDS011;55984;48.790;8.990;2022-09-01T06:12:29;278.67;;;63.93;;
68944;SDS011;55984;48.790;8.990;2022-09-01T06:14:55;237.13;;;56.00;;
68944;SDS011;55984;48.790;8.990;2022-09-01T06:17:22;240.43;;;57.60;;
68944;SDS011;55984;48.790;8.990;2022-09-01T06:19:52;236.83;;;55.90;;
68944;SDS011;55984;48.790;8.990;2022-09-01T06:22:23;224.47;;;52.27;;
68944;SDS011;55984;48.790;8.990;2022-09-01T06:24:51;223.10;;;52.73;;
68944;SDS011;55984;48.790;8.990;2022-09-01T06:27:18;207.23;;;50.17;;
68944;SDS011;55984;48.790;8.990;2022-09-01T06:29:45;189.33;;;50.27;;
68944;SDS011;55984;48.790;8.990;2022-09-01T06:32:13;179.63;;;48.73;;
68944;SDS011;55984;48.790;8.990;2022-09-01T06:34:39;176.83;;;48.40;;
68944;SDS011;55984;48.790;8.990;2022-09-01T06:37:06;203.37;;;51.43;;
68944;SDS011;55984;48.790;8.990;2022-09-01T06:39:32;152.17;;;47.63;;
68944;SDS011;55984;48.790;8.990;2022-09-01T06:41:58;168.77;;;49.03;;
68944;SDS011;55984;48.790;8.990;2022-09-01T06:44:25;181.77;;;53.00;;
68944;SDS011;55984;48.790;8.990;2022-09-01T06:46:50;135.50;;;45.80;;
68944;SDS011;55984;48.790;8.990;2022-09-01T06:49:17;113.23;;;43.07;;
68944;SDS011;55984;48.790;8.990;2022-09-01T06:51:43;107.33;;;41.13;;
68944;SDS011;55984;48.790;8.990;2022-09-01T06:54:13;89.10;;;37.77;;
68944;SDS011;55984;48.790;8.990;2022-09-01T06:56:38;97.90;;;39.00;;
68944;SDS011;55984;48.790;8.990;2022-09-01T06:59:04;76.90;;;36.67;;
68944;SDS011;55984;48.790;8.990;2022-09-01T07:01:31;64.73;;;33.37;;
68944;SDS011;55984;48.790;8.990;2022-09-01T07:03:58;83.73;;;34.83;;
68944;SDS011;55984;48.790;8.990;2022-09-01T07:06:25;77.67;;;34.30;;
68944;SDS011;55984;48.790;8.990;2022-09-01T07:08:54;63.27;;;32.50;;
68944;SDS011;55984;48.790;8.990;2022-09-01T07:11:22;59.13;;;30.43;;
68944;SDS011;55984;48.790;8.990;2022-09-01T07:13:58;45.00;;;26.57;;
68944;SDS011;55984;48.790;8.990;2022-09-01T07:16:26;50.47;;;26.83;;
68944;SDS011;55984;48.790;8.990;2022-09-01T07:18:53;45.83;;;26.10;;
68944;SDS011;55984;48.790;8.990;2022-09-01T07:21:22;46.67;;;25.60;;
68944;SDS011;55984;48.790;8.990;2022-09-01T07:23:49;47.60;;;25.43;;
68944;SDS011;55984;48.790;8.990;2022-09-01T07:26:18;45.97;;;25.93;;
68944;SDS011;55984;48.790;8.990;2022-09-01T07:28:50;40.70;;;23.27;;
68944;SDS011;55984;48.790;8.990;2022-09-01T07:31:20;35.60;;;22.10;;
68944;SDS011;55984;48.790;8.990;2022-09-01T07:34:09;40.07;;;22.40;;
68944;SDS011;55984;48.790;8.990;2022-09-01T07:37:09;32.53;;;20.30;;
68944;SDS011;55984;48.790;8.990;2022-09-01T07:39:38;33.70;;;19.60;;
68944;SDS011;55984;48.790;8.990;2022-09-01T07:42:11;35.80;;;19.50;;
68944;SDS011;55984;48.790;8.990;2022-09-01T07:44:37;30.03;;;19.20;;
68944;SDS011;55984;48.790;8.990;2022-09-01T07:47:20;33.37;;;19.57;;
68944;SDS011;55984;48.790;8.990;2022-09-01T07:49:59;26.43;;;17.03;;
68944;SDS011;55984;48.790;8.990;2022-09-01T07:52:38;26.30;;;16.40;;
68944;SDS011;55984;48.790;8.990;2022-09-01T07:55:14;26.57;;;17.07;;
68944;SDS011;55984;48.790;8.990;2022-09-01T07:57:46;26.70;;;15.83;;
68944;SDS011;55984;48.790;8.990;2022-09-01T08:00:12;26.33;;;16.90;;
68944;SDS011;55984;48.790;8.990;2022-09-01T08:02:40;27.00;;;15.70;;
68944;SDS011;55984;48.790;8.990;2022-09-01T08:05:08;29.00;;;17.17;;
68944;SDS011;55984;48.790;8.990;2022-09-01T08:07:37;27.60;;;16.57;;
68944;SDS011;55984;48.790;8.990;2022-09-01T08:10:03;26.67;;;16.23;;
68944;SDS011;55984;48.790;8.990;2022-09-01T08:12:31;23.43;;;15.23;;
68944;SDS011;55984;48.790;8.990;2022-09-01T08:14:58;24.00;;;15.03;;
68944;SDS011;55984;48.790;8.990;2022-09-01T08:17:25;23.10;;;14.77;;
68944;SDS011;55984;48.790;8.990;2022-09-01T08:19:50;24.10;;;14.33;;
68944;SDS011;55984;48.790;8.990;2022-09-01T08:22:17;25.30;;;14.83;;
68944;SDS011;55984;48.790;8.990;2022-09-01T08:24:47;23.57;;;15.70;;
68944;SDS011;55984;48.790;8.990;2022-09-01T08:27:13;23.83;;;14.67;;
68944;SDS011;55984;48.790;8.990;2022-09-01T08:29:38;19.73;;;12.67;;
68944;SDS011;55984;48.790;8.990;2022-09-01T08:32:04;22.70;;;13.80;;
68944;SDS011;55984;48.790;8.990;2022-09-01T08:34:31;22.73;;;13.40;;
68944;SDS011;55984;48.790;8.990;2022-09-01T08:36:57;18.60;;;12.23;;
68944;SDS011;55984;48.790;8.990;2022-09-01T08:39:23;20.00;;;12.10;;
68944;SDS011;55984;48.790;8.990;2022-09-01T08:44:32;17.50;;;11.97;;
68944;SDS011;55984;48.790;8.990;2022-09-01T08:47:06;17.50;;;11.67;;
68944;SDS011;55984;48.790;8.990;2022-09-01T08:49:34;17.07;;;11.60;;
68944;SDS011;55984;48.790;8.990;2022-09-01T08:54:50;18.67;;;10.93;;
68944;SDS011;55984;48.790;8.990;2022-09-01T09:00:05;19.03;;;12.27;;
68944;SDS011;55984;48.790;8.990;2022-09-01T09:08:24;18.50;;;11.80;;
68944;SDS011;55984;48.790;8.990;2022-09-01T09:11:07;16.03;;;10.60;;
68944;SDS011;55984;48.790;8.990;2022-09-01T09:13:45;14.93;;;10.30;;
68944;SDS011;55984;48.790;8.990;2022-09-01T09:16:30;14.73;;;9.93;;
68944;SDS011;55984;48.790;8.990;2022-09-01T09:19:14;15.83;;;8.90;;
68944;SDS011;55984;48.790;8.990;2022-09-01T09:21:48;17.13;;;9.47;;
68944;SDS011;55984;48.790;8.990;2022-09-01T09:24:33;17.87;;;9.40;;
68944;SDS011;55984;48.790;8.990;2022-09-01T09:27:17;13.00;;;9.20;;
68944;SDS011;55984;48.790;8.990;2022-09-01T09:29:52;15.40;;;9.57;;
68944;SDS011;55984;48.790;8.990;2022-09-01T09:32:20;13.20;;;9.00;;
68944;SDS011;55984;48.790;8.990;2022-09-01T09:34:48;13.17;;;9.30;;
68944;SDS011;55984;48.790;8.990;2022-09-01T09:37:19;14.33;;;8.43;;
68944;SDS011;55984;48.790;8.990;2022-09-01T09:40:07;12.30;;;8.43;;
68944;SDS011;55984;48.790;8.990;2022-09-01T09:42:41;11.27;;;8.10;;
68944;SDS011;55984;48.790;8.990;2022-09-01T09:47:58;11.97;;;8.37;;
68944;SDS011;55984;48.790;8.990;2022-09-01T09:50:29;10.77;;;7.90;;
68944;SDS011;55984;48.790;8.990;2022-09-01T09:58:38;11.67;;;8.03;;
68944;SDS011;55984;48.790;8.990;2022-09-01T10:01:11;10.67;;;7.90;;
68944;SDS011;55984;48.790;8.990;2022-09-01T10:04:00;11.30;;;7.80;;
68944;SDS011;55984;48.790;8.990;2022-09-01T10:08:59;12.20;;;8.27;;
68944;SDS011;55984;48.790;8.990;2022-09-01T10:11:37;10.00;;;7.30;;
68944;SDS011;55984;48.790;8.990;2022-09-01T10:14:06;11.30;;;7.73;;
68944;SDS011;55984;48.790;8.990;2022-09-01T10:16:38;11.23;;;7.60;;
68944;SDS011;55984;48.790;8.990;2022-09-01T10:19:06;14.07;;;7.67;;
68944;SDS011;55984;48.790;8.990;2022-09-01T10:21:37;11.40;;;7.83;;
68944;SDS011;55984;48.790;8.990;2022-09-01T10:26:55;9.47;;;6.47;;
68944;SDS011;55984;48.790;8.990;2022-09-01T10:29:24;8.57;;;7.10;;
68944;SDS011;55984;48.790;8.990;2022-09-01T10:31:56;9.20;;;7.20;;
68944;SDS011;55984;48.790;8.990;2022-09-01T10:34:24;12.57;;;8.00;;
68944;SDS011;55984;48.790;8.990;2022-09-01T10:36:55;10.93;;;7.07;;
68944;SDS011;55984;48.790;8.990;2022-09-01T10:39:22;9.80;;;7.13;;
68944;SDS011;55984;48.790;8.990;2022-09-01T10:41:49;9.23;;;7.27;;
68944;SDS011;55984;48.790;8.990;2022-09-01T10:47:02;9.53;;;6.67;;
68944;SDS011;55984;48.790;8.990;2022-09-01T10:52:02;6.63;;;5.50;;
68944;SDS011;55984;48.790;8.990;2022-09-01T10:57:09;6.00;;;5.03;;
68944;SDS011;55984;48.790;8.990;2022-09-01T10:59:45;7.40;;;6.03;;
68944;SDS011;55984;48.790;8.990;2022-09-01T11:02:12;6.23;;;5.33;;
68944;SDS011;55984;48.790;8.990;2022-09-01T11:09:43;6.10;;;5.10;;
68944;SDS011;55984;48.790;8.990;2022-09-01T11:17:30;7.70;;;5.30;;
68944;SDS011;55984;48.790;8.990;2022-09-01T11:20:11;6.30;;;5.20;;
68944;SDS011;55984;48.790;8.990;2022-09-01T11:30:54;6.47;;;5.00;;
68944;SDS011;55984;48.790;8.990;2022-09-01T11:33:45;6.70;;;5.10;;
68944;SDS011;55984;48.790;8.990;2022-09-01T11:41:54;6.70;;;5.43;;
68944;SDS011;55984;48.790;8.990;2022-09-01T11:44:27;5.83;;;4.97;;
68944;SDS011;55984;48.790;8.990;2022-09-01T11:46:57;7.20;;;5.50;;
68944;SDS011;55984;48.790;8.990;2022-09-01T11:51:54;9.10;;;5.10;;
68944;SDS011;55984;48.790;8.990;2022-09-01T11:54:22;5.80;;;5.00;;
68944;SDS011;55984;48.790;8.990;2022-09-01T11:56:48;5.77;;;4.70;;
68944;SDS011;55984;48.790;8.990;2022-09-01T11:59:14;6.67;;;5.30;;
68944;SDS011;55984;48.790;8.990;2022-09-01T12:01:58;6.83;;;5.73;;
68944;SDS011;55984;48.790;8.990;2022-09-01T12:04:25;7.43;;;5.60;;
68944;SDS011;55984;48.790;8.990;2022-09-01T12:09:33;7.47;;;5.90;;
68944;SDS011;55984;48.790;8.990;2022-09-01T12:14:57;7.70;;;6.20;;
68944;SDS011;55984;48.790;8.990;2022-09-01T12:17:23;9.00;;;5.67;;
68944;SDS011;55984;48.790;8.990;2022-09-01T12:19:49;6.60;;;5.43;;
68944;SDS011;55984;48.790;8.990;2022-09-01T12:22:19;6.80;;;5.17;;
68944;SDS011;55984;48.790;8.990;2022-09-01T12:24:52;6.80;;;5.57;;
68944;SDS011;55984;48.790;8.990;2022-09-01T12:27:19;5.70;;;4.67;;
68944;SDS011;55984;48.790;8.990;2022-09-01T12:29:47;6.73;;;4.97;;
68944;SDS011;55984;48.790;8.990;2022-09-01T12:32:13;5.70;;;5.10;;
68944;SDS011;55984;48.790;8.990;2022-09-01T12:35:14;5.23;;;4.63;;
68944;SDS011;55984;48.790;8.990;2022-09-01T12:37:40;6.23;;;4.70;;
68944;SDS011;55984;48.790;8.990;2022-09-01T12:40:05;9.10;;;4.90;;
68944;SDS011;55984;48.790;8.990;2022-09-01T12:42:48;5.70;;;4.70;;
68944;SDS011;55984;48.790;8.990;2022-09-01T12:45:15;5.90;;;4.93;;
68944;SDS011;55984;48.790;8.990;2022-09-01T12:48:22;9.10;;;5.87;;
68944;SDS011;55984;48.790;8.990;2022-09-01T12:50:49;5.70;;;4.67;;
68944;SDS011;55984;48.790;8.990;2022-09-01T12:53:17;6.97;;;5.00;;
68944;SDS011;55984;48.790;8.990;2022-09-01T12:55:55;4.97;;;4.50;;
68944;SDS011;55984;48.790;8.990;2022-09-01T12:58:23;8.07;;;5.10;;
68944;SDS011;55984;48.790;8.990;2022-09-01T13:03:27;6.50;;;5.20;;
68944;SDS011;55984;48.790;8.990;2022-09-01T13:05:54;5.40;;;4.97;;
68944;SDS011;55984;48.790;8.990;2022-09-01T13:08:25;5.50;;;5.03;;
68944;SDS011;55984;48.790;8.990;2022-09-01T13:11:03;8.00;;;5.50;;
68944;SDS011;55984;48.790;8.990;2022-09-01T13:13:30;6.03;;;5.27;;
68944;SDS011;55984;48.790;8.990;2022-09-01T13:15:56;6.87;;;5.30;;
68944;SDS011;55984;48.790;8.990;2022-09-01T13:18:25;6.97;;;5.23;;
68944;SDS011;55984;48.790;8.990;2022-09-01T13:20:51;6.80;;;5.20;;
68944;SDS011;55984;48.790;8.990;2022-09-01T13:23:19;6.90;;;5.50;;
68944;SDS011;55984;48.790;8.990;2022-09-01T13:25:45;7.00;;;5.60;;
68944;SDS011;55984;48.790;8.990;2022-09-01T13:28:11;7.17;;;5.37;;
68944;SDS011;55984;48.790;8.990;2022-09-01T13:30:42;7.53;;;5.27;;
68944;SDS011;55984;48.790;8.990;2022-09-01T13:33:09;7.17;;;5.33;;
68944;SDS011;55984;48.790;8.990;2022-09-01T13:35:36;10.57;;;5.40;;
68944;SDS011;55984;48.790;8.990;2022-09-01T13:38:02;7.80;;;5.40;;
68944;SDS011;55984;48.790;8.990;2022-09-01T13:40:28;8.33;;;5.50;;
68944;SDS011;55984;48.790;8.990;2022-09-01T13:42:53;7.80;;;5.80;;
68944;SDS011;55984;48.790;8.990;2022-09-01T13:45:20;7.30;;;5.50;;
68944;SDS011;55984;48.790;8.990;2022-09-01T13:47:48;11.10;;;5.13;;
68944;SDS011;55984;48.790;8.990;2022-09-01T13:50:15;6.40;;;5.20;;
68944;SDS011;55984;48.790;8.990;2022-09-01T13:52:44;7.17;;;5.20;;
68944;SDS011;55984;48.790;8.990;2022-09-01T13:55:12;6.73;;;5.23;;
68944;SDS011;55984;48.790;8.990;2022-09-01T13:57:39;7.70;;;5.30;;
68944;SDS011;55984;48.790;8.990;2022-09-01T14:00:06;11.10;;;5.23;;
68944;SDS011;55984;48.790;8.990;2022-09-01T14:02:34;8.73;;;5.10;;
68944;SDS011;55984;48.790;8.990;2022-09-01T14:05:01;8.23;;;4.87;;
68944;SDS011;55984;48.790;8.990;2022-09-01T14:07:27;5.37;;;4.60;;
68944;SDS011;55984;48.790;8.990;2022-09-01T14:09:53;5.50;;;4.70;;
68944;SDS011;55984;48.790;8.990;2022-09-01T14:12:19;5.30;;;4.80;;
68944;SDS011;55984;48.790;8.990;2022-09-01T14:14:44;6.00;;;4.70;;
68944;SDS011;55984;48.790;8.990;2022-09-01T14:17:11;5.57;;;4.70;;
68944;SDS011;55984;48.790;8.990;2022-09-01T14:19:36;4.80;;;4.40;;
68944;SDS011;55984;48.790;8.990;2022-09-01T14:22:02;4.33;;;3.70;;
68944;SDS011;55984;48.790;8.990;2022-09-01T14:24:30;5.80;;;4.83;;
68944;SDS011;55984;48.790;8.990;2022-09-01T14:26:58;5.80;;;4.30;;
68944;SDS011;55984;48.790;8.990;2022-09-01T14:29:23;5.70;;;4.00;;
68944;SDS011;55984;48.790;8.990;2022-09-01T14:31:49;5.80;;;4.37;;
68944;SDS011;55984;48.790;8.990;2022-09-01T14:34:15;4.40;;;4.00;;
68944;SDS011;55984;48.790;8.990;2022-09-01T14:36:43;5.60;;;4.33;;
68944;SDS011;55984;48.790;8.990;2022-09-01T14:39:09;4.43;;;4.23;;
68944;SDS011;55984;48.790;8.990;2022-09-01T14:41:34;6.20;;;4.60;;
68944;SDS011;55984;48.790;8.990;2022-09-01T14:44:00;5.73;;;4.47;;
68944;SDS011;55984;48.790;8.990;2022-09-01T14:46:26;5.60;;;4.90;;
68944;SDS011;55984;48.790;8.990;2022-09-01T14:48:54;7.00;;;4.80;;
68944;SDS011;55984;48.790;8.990;2022-09-01T14:51:25;5.50;;;4.27;;
68944;SDS011;55984;48.790;8.990;2022-09-01T14:53:53;5.20;;;4.23;;
68944;SDS011;55984;48.790;8.990;2022-09-01T14:56:19;6.77;;;4.47;;
68944;SDS011;55984;48.790;8.990;2022-09-01T14:58:46;5.70;;;4.83;;
68944;SDS011;55984;48.790;8.990;2022-09-01T15:01:13;8.43;;;5.80;;
68944;SDS011;55984;48.790;8.990;2022-09-01T15:03:41;6.27;;;4.70;;
68944;SDS011;55984;48.790;8.990;2022-09-01T15:06:09;5.67;;;4.70;;
68944;SDS011;55984;48.790;8.990;2022-09-01T15:08:36;8.90;;;5.30;;
68944;SDS011;55984;48.790;8.990;2022-09-01T15:11:02;6.27;;;4.90;;
68944;SDS011;55984;48.790;8.990;2022-09-01T15:13:33;8.20;;;5.57;;
68944;SDS011;55984;48.790;8.990;2022-09-01T15:15:58;6.10;;;5.03;;
68944;SDS011;55984;48.790;8.990;2022-09-01T15:18:23;5.20;;;4.63;;
68944;SDS011;55984;48.790;8.990;2022-09-01T15:20:49;10.07;;;5.33;;
68944;SDS011;55984;48.790;8.990;2022-09-01T15:23:17;6.37;;;4.67;;
68944;SDS011;55984;48.790;8.990;2022-09-01T15:25:44;5.33;;;4.60;;
68944;SDS011;55984;48.790;8.990;2022-09-01T15:28:10;5.20;;;4.40;;
68944;SDS011;55984;48.790;8.990;2022-09-01T15:30:37;4.50;;;4.20;;
68944;SDS011;55984;48.790;8.990;2022-09-01T15:33:04;5.00;;;4.30;;
68944;SDS011;55984;48.790;8.990;2022-09-01T15:35:30;5.07;;;4.27;;
68944;SDS011;55984;48.790;8.990;2022-09-01T15:37:56;8.00;;;4.20;;
68944;SDS011;55984;48.790;8.990;2022-09-01T15:40:22;5.90;;;4.10;;
68944;SDS011;55984;48.790;8.990;2022-09-01T15:42:48;4.37;;;3.60;;
68944;SDS011;55984;48.790;8.990;2022-09-01T15:45:15;6.07;;;4.47;;